Terminal Aerodrome Forecast
Issued by NWS

Home | Current Version | Previous Version | Text Only | Print | Product List | Glossary On
Versions: 1 2 3 4 5 6 7 8 9 10 11 12 13 14 15 16 17 18 19 20 21 22 23 24 25 26 27 28 29 30 31 32 33
000
FTUS45 KGJT 180535
TAFASE
TAF
KASE 180535Z 1806/1906 00000KT 3SM -SN BR VCSH FEW003 OVC020
      TEMPO 1807/1811 4SM BR BKN020
     FM181900 35003KT P6SM SCT015 BKN060
     FM190100 22003KT P6SM VCFG FEW010 OVC050=

USA.gov is the U.S. government's official web portal to all federal, state and local government web resources and services.